Time;durP1;ratioP1;P1;durP2;ratioP2;P2;SDS_P1;SDS_P2;PMS_P1;PMS_P2;Temp;Humidity;BMP_temperature;BMP_pressure;BME280_temperature;BME280_humidity;BME280_pressure;Samples;Min_cycle;Max_cycle;Signal;HPM_P1;HPM_P2
2021/12/16 00:02:37;;;;;;;105.68;37.17;;;;;;;9.92;68.60;101183.69;5021762;28;20430;-70
2021/12/16 00:05:25;;;;;;;110.78;45.78;;;;;;;9.95;68.35;101178.28;5021080;28;20053;-68
2021/12/16 00:07:58;;;;;;;109.80;39.60;;;;;;;9.91;68.53;101172.31;5022109;28;20061;-68
2021/12/16 00:10:31;;;;;;;127.03;44.20;;;;;;;9.89;68.73;101179.47;5021054;28;20056;-68
2021/12/16 00:32:32;;;;;;;156.48;52.03;;;;;;;9.94;68.74;101158.94;5019732;28;20045;-68
2021/12/16 00:35:00;;;;;;;170.25;58.50;;;;;;;10.00;68.81;101164.84;5023387;28;20581;-68
2021/12/16 00:37:27;;;;;;;133.32;46.03;;;;;;;10.03;68.62;101167.28;5026137;28;20103;-69
2021/12/16 00:39:55;;;;;;;118.22;39.88;;;;;;;10.05;68.65;101163.63;5028336;28;20046;-68
2021/12/16 00:42:33;;;;;;;136.43;53.20;;;;;;;10.05;68.63;101176.00;5031239;28;20041;-68
2021/12/16 00:47:50;;;;;;;142.20;54.45;;;;;;;9.98;68.91;101172.81;5025114;28;20195;-67
2021/12/16 00:54:05;;;;;;;135.38;51.80;;;;;;;10.00;68.74;101176.22;5027034;28;20046;-68
2021/12/16 00:55:57;;;;;;;151.15;65.28;;;;;;;10.02;68.78;101169.06;5025862;28;20750;-68
2021/12/16 00:58:31;;;;;;;155.77;58.05;;;;;;;9.95;69.17;101171.19;5022592;28;20050;-67
2021/12/16 01:01:07;;;;;;;136.40;54.92;;;;;;;9.95;68.88;101173.84;5047270;28;20512;-68
2021/12/16 01:03:41;;;;;;;131.75;47.92;;;;;;;9.96;68.97;101177.34;5065754;28;20059;-67
2021/12/16 01:06:31;;;;;;;116.57;44.13;;;;;;;10.04;68.92;101174.28;5064158;28;20519;-68
2021/12/16 01:09:15;;;;;;;157.63;60.15;;;;;;;10.06;68.67;101178.50;5064758;28;20049;-69
2021/12/16 01:34:03;;;;;;;100.78;39.28;;;;;;;10.12;68.56;101154.44;5022127;28;20084;-69
2021/12/16 01:36:51;;;;;;;103.88;39.50;;;;;;;10.14;68.53;101149.91;5021983;28;20049;-69
2021/12/16 01:42:27;;;;;;;90.13;35.20;;;;;;;10.20;68.21;101153.16;5021337;28;20053;-71
2021/12/16 01:50:28;;;;;;;82.05;32.90;;;;;;;10.20;68.33;101150.50;5018595;28;20080;-69
2021/12/16 01:53:13;;;;;;;71.95;29.13;;;;;;;10.26;68.32;101152.78;5064327;28;20056;-72
2021/12/16 01:55:48;;;;;;;70.93;29.48;;;;;;;10.30;68.06;101152.53;5064395;28;20052;-68
2021/12/16 01:58:19;;;;;;;84.40;39.78;;;;;;;10.27;67.97;101146.59;5065070;28;20106;-68
2021/12/16 02:00:56;;;;;;;81.72;38.70;;;;;;;10.25;68.28;101141.38;5062354;28;20151;-68
2021/12/16 02:03:37;;;;;;;79.32;35.63;;;;;;;10.25;68.16;101143.19;5063912;28;20051;-73
2021/12/16 02:06:13;;;;;;;89.45;36.25;;;;;;;10.23;68.09;101142.44;5064911;28;20132;-70
2021/12/16 02:08:41;;;;;;;82.90;40.83;;;;;;;10.18;68.27;101142.66;5064627;28;20056;-69
2021/12/16 02:11:25;;;;;;;88.10;32.53;;;;;;;10.22;68.20;101146.00;5065205;28;20047;-68
2021/12/16 02:28:04;;;;;;;74.72;35.72;;;;;;;10.25;67.95;101149.31;5067864;28;20055;-67
2021/12/16 02:36:25;;;;;;;82.45;29.45;;;;;;;10.19;68.15;101141.75;5045339;28;20053;-68
2021/12/16 02:38:57;;;;;;;81.63;34.88;;;;;;;10.14;68.24;101139.34;5044909;28;20061;-70
2021/12/16 02:41:25;;;;;;;78.38;34.08;;;;;;;10.12;68.42;101133.31;5045640;28;20064;-68
2021/12/16 02:44:17;;;;;;;79.80;34.28;;;;;;;10.14;68.23;101135.88;5044556;28;20053;-69
2021/12/16 02:49:32;;;;;;;83.43;34.85;;;;;;;10.16;68.08;101141.91;5044836;28;20051;-69
2021/12/16 02:52:00;;;;;;;77.78;37.85;;;;;;;10.14;68.23;101142.00;5043747;28;20060;-68
2021/12/16 02:54:29;;;;;;;85.03;37.60;;;;;;;10.16;68.31;101143.72;5043978;28;20507;-68
2021/12/16 02:56:57;;;;;;;72.00;31.80;;;;;;;10.16;68.29;101141.06;5044466;28;20056;-67
2021/12/16 02:59:28;;;;;;;75.63;30.70;;;;;;;10.20;68.17;101146.06;5044482;28;20049;-68
2021/12/16 03:01:59;;;;;;;81.40;33.15;;;;;;;10.21;68.00;101146.91;5041822;28;20468;-68
2021/12/16 03:04:29;;;;;;;72.22;33.25;;;;;;;10.23;68.16;101150.34;5044103;28;20049;-69
2021/12/16 03:06:58;;;;;;;76.20;32.17;;;;;;;10.23;68.14;101142.44;5043952;28;20747;-68
2021/12/16 03:09:55;;;;;;;83.28;34.78;;;;;;;10.23;68.16;101145.06;5043856;28;20056;-68
2021/12/16 03:15:18;;;;;;;70.70;31.33;;;;;;;10.24;68.07;101142.31;5065994;28;20055;-69
2021/12/16 03:17:57;;;;;;;89.57;39.88;;;;;;;10.22;68.00;101144.19;5067597;28;20412;-70
2021/12/16 03:20:34;;;;;;;69.20;31.75;;;;;;;10.19;68.08;101149.66;5066912;28;20059;-69
2021/12/16 03:23:17;;;;;;;73.80;34.63;;;;;;;10.14;68.20;101147.28;5066589;28;20041;-69
2021/12/16 03:25:57;;;;;;;64.57;32.65;;;;;;;10.18;68.13;101147.94;5066181;28;20119;-70
2021/12/16 03:28:51;;;;;;;76.38;33.53;;;;;;;10.22;68.01;101151.28;5066900;28;20088;-68
2021/12/16 03:34:30;;;;;;;78.68;34.85;;;;;;;10.22;67.94;101148.63;5065252;28;20109;-67
2021/12/16 03:37:14;;;;;;;78.28;35.38;;;;;;;10.24;67.90;101149.38;5066858;28;20047;-68
2021/12/16 03:39:43;;;;;;;83.75;37.60;;;;;;;10.22;67.89;101153.91;5067013;28;20059;-68
2021/12/16 03:42:12;;;;;;;67.72;32.55;;;;;;;10.18;68.07;101147.13;5066268;28;20044;-75
2021/12/16 03:44:53;;;;;;;69.93;35.50;;;;;;;10.18;68.09;101147.94;5066723;28;20048;-70
2021/12/16 03:47:24;;;;;;;59.15;30.10;;;;;;;10.22;68.10;101144.19;5067299;28;20068;-68
2021/12/16 03:49:52;;;;;;;64.95;32.17;;;;;;;10.20;67.97;101150.50;5066423;28;20048;-68
2021/12/16 03:52:20;;;;;;;63.55;32.78;;;;;;;10.13;67.91;101148.19;5066667;28;20051;-69
2021/12/16 03:54:50;;;;;;;58.17;29.38;;;;;;;10.20;67.91;101139.94;5066818;28;20060;-68
2021/12/16 03:57:21;;;;;;;55.80;31.38;;;;;;;10.21;67.90;101147.78;5066671;28;20059;-69
2021/12/16 03:59:51;;;;;;;67.63;31.58;;;;;;;10.25;67.83;101137.91;5067112;28;20052;-69
2021/12/16 04:02:22;;;;;;;64.93;30.70;;;;;;;10.19;67.79;101138.22;5065100;28;20071;-69
2021/12/16 04:04:51;;;;;;;67.82;33.38;;;;;;;10.20;67.75;101139.94;5065247;28;20040;-69
2021/12/16 04:07:21;;;;;;;70.13;34.30;;;;;;;10.20;67.85;101134.66;5066334;28;20048;-69
2021/12/16 04:09:49;;;;;;;65.10;31.52;;;;;;;10.17;67.79;101133.03;5066416;28;20040;-69
2021/12/16 04:12:20;;;;;;;65.13;34.03;;;;;;;10.13;67.74;101136.81;5066093;28;20102;-69
2021/12/16 04:14:51;;;;;;;69.95;34.88;;;;;;;10.11;67.83;101133.41;5066022;28;20552;-67
2021/12/16 04:17:20;;;;;;;66.88;38.05;;;;;;;10.12;67.75;101135.97;5066661;28;20055;-72
2021/12/16 04:19:48;;;;;;;70.82;35.63;;;;;;;10.09;67.67;101136.13;5065984;28;20493;-69
2021/12/16 04:22:18;;;;;;;53.40;30.73;;;;;;;10.16;67.67;101127.88;5065594;28;20599;-71
2021/12/16 04:24:47;;;;;;;58.25;34.30;;;;;;;10.14;67.53;101126.16;5065198;28;20083;-70
2021/12/16 04:27:15;;;;;;;57.92;29.00;;;;;;;10.16;67.73;101133.16;5066118;28;20041;-71
2021/12/16 04:29:43;;;;;;;67.53;37.67;;;;;;;10.13;67.71;101129.72;5065721;28;20044;-67
2021/12/16 04:32:12;;;;;;;67.40;40.60;;;;;;;10.08;67.47;101131.78;5063572;28;20053;-72
2021/12/16 04:34:40;;;;;;;62.42;34.58;;;;;;;10.05;67.43;101131.97;5065356;28;20623;-69
2021/12/16 04:37:07;;;;;;;58.78;28.92;;;;;;;10.00;67.29;101128.72;5065354;28;20091;-69
2021/12/16 04:39:36;;;;;;;53.45;29.23;;;;;;;10.01;67.44;101125.16;5065413;28;20059;-71
2021/12/16 04:42:05;;;;;;;58.50;30.73;;;;;;;9.93;67.44;101122.09;5064297;28;20413;-69
2021/12/16 04:44:33;;;;;;;52.15;31.08;;;;;;;9.91;67.50;101118.69;5065106;28;20097;-70
2021/12/16 04:47:01;;;;;;;61.63;37.13;;;;;;;9.81;67.73;101120.13;5030982;28;20496;-69
2021/12/16 04:49:31;;;;;;;62.65;35.85;;;;;;;9.81;67.73;101118.31;5065585;28;20049;-68
2021/12/16 04:52:01;;;;;;;59.97;39.65;;;;;;;9.74;67.51;101123.13;5029504;28;20045;-69
2021/12/16 04:54:29;;;;;;;54.20;35.00;;;;;;;9.76;67.74;101126.50;5065564;28;20053;-69
2021/12/16 04:56:58;;;;;;;57.78;33.92;;;;;;;9.80;67.32;101116.66;5065753;28;20048;-69
2021/12/16 04:59:28;;;;;;;53.58;31.85;;;;;;;9.87;67.42;101117.16;5065149;28;20063;-69
2021/12/16 05:01:58;;;;;;;52.80;29.98;;;;;;;9.90;67.21;101109.94;5064838;28;20052;-69
2021/12/16 05:04:25;;;;;;;56.10;31.55;;;;;;;9.97;67.16;101112.22;5068473;28;20052;-69
2021/12/16 05:06:54;;;;;;;53.60;31.20;;;;;;;9.89;67.23;101110.84;5066896;28;20048;-71
2021/12/16 05:09:57;;;;;;;57.67;34.60;;;;;;;10.00;67.05;101110.25;5067544;28;20075;-70
2021/12/16 05:12:23;;;;;;;51.90;32.67;;;;;;;9.93;67.13;101106.25;5073659;28;20114;-69
2021/12/16 05:14:51;;;;;;;60.20;38.80;;;;;;;9.91;67.02;101097.56;5077240;28;20098;-68
2021/12/16 05:17:27;;;;;;;54.92;29.02;;;;;;;9.95;67.08;101097.28;5079768;28;20072;-70
2021/12/16 05:19:53;;;;;;;;;;;;;;;10.23;66.31;101094.91;5071413;28;20060;-71
2021/12/16 05:25:19;;;;;;;50.22;29.13;;;;;;;10.02;66.99;101099.59;5063734;28;20416;-68
2021/12/16 05:27:46;;;;;;;60.50;38.45;;;;;;;9.93;66.81;101108.91;5064953;28;20044;-70
2021/12/16 05:30:13;;;;;;;58.95;39.03;;;;;;;9.89;66.88;101110.84;5062649;28;20040;-69
2021/12/16 05:32:45;;;;;;;50.67;30.38;;;;;;;9.84;66.51;101114.69;5064198;28;20045;-68
2021/12/16 05:35:14;;;;;;;54.80;38.42;;;;;;;9.85;66.49;101113.72;5064303;28;20160;-69
2021/12/16 05:37:43;;;;;;;55.53;35.20;;;;;;;9.84;66.74;101106.78;5064572;28;20068;-69
2021/12/16 05:40:12;;;;;;;53.58;35.80;;;;;;;9.87;66.66;101103.97;5063293;28;20715;-70
2021/12/16 05:42:39;;;;;;;51.38;34.33;;;;;;;9.82;66.42;101106.84;5064043;28;20059;-69
2021/12/16 05:45:08;;;;;;;50.88;30.42;;;;;;;9.89;66.62;101104.72;5063387;28;20044;-69
2021/12/16 05:47:35;;;;;;;48.90;28.48;;;;;;;9.99;66.49;101111.16;5063258;28;20045;-69
2021/12/16 05:50:03;;;;;;;44.63;26.73;;;;;;;10.07;66.40;101119.53;5064582;28;20666;-68
2021/12/16 05:52:30;;;;;;;44.05;28.08;;;;;;;10.08;66.48;101115.97;5064362;28;20056;-70
2021/12/16 05:54:58;;;;;;;52.90;30.40;;;;;;;10.12;66.35;101117.47;5067555;28;20412;-70
2021/12/16 05:57:29;;;;;;;56.47;30.08;;;;;;;10.11;66.49;101120.19;5050685;28;20711;-71
2021/12/16 05:59:56;;;;;;;49.40;28.55;;;;;;;10.14;66.47;101117.41;5067301;28;20056;-74
2021/12/16 06:02:24;;;;;;;57.30;32.63;;;;;;;9.95;66.49;101117.56;5066757;28;20052;-70
2021/12/16 06:04:52;;;;;;;52.63;27.55;;;;;;;9.98;66.37;101124.47;5068530;28;20388;-74
2021/12/16 06:07:20;;;;;;;64.35;41.47;;;;;;;9.90;66.63;101112.56;5067715;28;20627;-70
2021/12/16 06:09:48;;;;;;;56.13;32.10;;;;;;;9.93;66.62;101116.81;5067949;28;20055;-70
2021/12/16 06:12:17;;;;;;;64.38;37.60;;;;;;;9.85;67.01;101119.00;5066819;28;20050;-69
2021/12/16 06:14:57;;;;;;;67.07;31.45;;;;;;;9.88;66.89;101116.22;5067097;28;20045;-71
2021/12/16 06:28:38;;;;;;;63.03;34.08;;;;;;;9.76;67.49;101115.13;5067793;28;20113;-69
2021/12/16 06:31:06;;;;;;;72.28;38.53;;;;;;;9.71;67.62;101125.91;5066028;28;20075;-71
2021/12/16 06:33:35;;;;;;;77.75;37.40;;;;;;;9.65;67.75;101128.03;5050190;28;20184;-73
2021/12/16 06:36:03;;;;;;;68.55;31.63;;;;;;;9.65;67.73;101121.00;5066963;28;20528;-70
2021/12/16 06:38:30;;;;;;;64.28;31.15;;;;;;;9.65;67.85;101117.47;5032503;28;20048;-71
2021/12/16 06:40:58;;;;;;;77.80;39.45;;;;;;;9.63;67.88;101125.47;5067148;28;20052;-72
2021/12/16 06:43:25;;;;;;;83.25;41.30;;;;;;;9.62;68.01;101120.31;5047588;28;20045;-70
2021/12/16 06:45:55;;;;;;;80.00;36.58;;;;;;;9.63;68.22;101119.34;5066069;28;20040;-69
2021/12/16 06:48:27;;;;;;;84.28;39.97;;;;;;;9.57;68.43;101126.66;5065653;28;20040;-70
2021/12/16 06:50:59;;;;;;;96.15;39.85;;;;;;;9.63;68.27;101124.63;5064732;28;20045;-70
2021/12/16 06:53:30;;;;;;;86.78;41.47;;;;;;;9.60;68.42;101125.66;5062553;28;20048;-70
2021/12/16 06:56:06;;;;;;;72.68;34.90;;;;;;;9.63;68.29;101125.47;5065616;28;20048;-71
2021/12/16 06:58:38;;;;;;;84.50;46.15;;;;;;;9.60;68.40;101123.03;5064548;28;20067;-71
2021/12/16 07:01:16;;;;;;;78.57;35.85;;;;;;;9.65;68.39;101122.75;5059878;28;20041;-70
2021/12/16 07:03:48;;;;;;;91.35;43.45;;;;;;;9.59;68.73;101128.38;5062726;28;20048;-70
2021/12/16 07:06:19;;;;;;;78.03;42.22;;;;;;;9.53;68.95;101132.19;5062722;28;20123;-71
2021/12/16 07:08:47;;;;;;;74.70;43.55;;;;;;;9.45;69.38;101131.75;5064508;28;20049;-73
2021/12/16 07:11:15;;;;;;;68.95;38.55;;;;;;;9.48;69.37;101144.78;5066322;28;20050;-73
2021/12/16 07:13:45;;;;;;;76.95;42.10;;;;;;;9.49;69.20;101130.63;5065717;28;20044;-74
2021/12/16 07:16:14;;;;;;;81.60;46.38;;;;;;;9.42;69.69;101138.06;5065303;28;20502;-73
2021/12/16 07:18:41;;;;;;;64.32;34.15;;;;;;;9.43;69.54;101139.72;5064749;28;20055;-73
2021/12/16 07:21:08;;;;;;;72.65;44.10;;;;;;;9.41;69.59;101131.06;5065165;28;20086;-74
2021/12/16 07:23:35;;;;;;;68.15;40.45;;;;;;;9.33;70.05;101138.53;5063352;28;20071;-73
2021/12/16 07:26:03;;;;;;;61.17;30.15;;;;;;;9.43;69.95;101144.16;5065436;28;20040;-74
2021/12/16 07:28:32;;;;;;;62.53;34.00;;;;;;;9.42;69.79;101138.06;5065582;28;20485;-74
2021/12/16 07:31:01;;;;;;;73.78;39.70;;;;;;;9.38;69.95;101147.03;5063220;28;20048;-70
2021/12/16 07:33:29;;;;;;;66.53;34.97;;;;;;;9.38;69.90;101140.00;5063644;28;20041;-72
2021/12/16 07:35:58;;;;;;;71.70;39.13;;;;;;;9.33;70.08;101134.13;5064019;28;20500;-72
2021/12/16 07:38:29;;;;;;;66.03;32.67;;;;;;;9.46;69.93;101123.75;5064475;28;20046;-71
2021/12/16 07:40:57;;;;;;;63.90;32.40;;;;;;;9.48;69.78;101124.53;5061163;28;20048;-69
2021/12/16 07:43:42;;;;;;;72.45;40.25;;;;;;;9.51;69.50;101120.88;5063192;28;20496;-72
2021/12/16 07:46:10;;;;;;;60.50;31.60;;;;;;;9.53;69.56;101119.84;5060728;28;20048;-71
2021/12/16 07:48:39;;;;;;;66.35;32.83;;;;;;;9.50;69.93;101129.72;5061450;28;20380;-69
2021/12/16 07:51:07;;;;;;;65.55;29.02;;;;;;;9.54;69.83;101123.34;5063344;28;20083;-69
2021/12/16 07:53:35;;;;;;;65.57;34.65;;;;;;;9.53;69.73;101119.00;5063339;28;20582;-68
2021/12/16 07:56:02;;;;;;;70.25;33.55;;;;;;;9.46;69.99;101118.47;5060860;28;20040;-71
2021/12/16 07:58:29;;;;;;;63.80;30.63;;;;;;;9.51;69.91;101123.53;5062284;28;20048;-69
2021/12/16 08:00:56;;;;;;;69.20;35.38;;;;;;;9.56;69.73;101121.47;5059238;28;20048;-68
2021/12/16 08:03:25;;;;;;;85.45;42.00;;;;;;;9.51;69.98;101123.53;5060917;28;20314;-70
2021/12/16 08:05:59;;;;;;;80.13;44.25;;;;;;;9.51;70.18;101131.44;5060705;28;20180;-71
2021/12/16 08:08:26;;;;;;;81.20;43.47;;;;;;;9.53;70.12;101124.28;5061638;28;20125;-68
2021/12/16 08:10:55;;;;;;;77.95;38.15;;;;;;;9.57;69.85;101112.63;5060777;28;20063;-69
2021/12/16 08:13:24;;;;;;;88.20;39.45;;;;;;;9.58;69.81;101127.53;5043551;28;20048;-68
2021/12/16 08:15:51;;;;;;;74.82;37.72;;;;;;;9.59;69.98;101136.28;5060912;28;20052;-68
2021/12/16 08:18:18;;;;;;;93.55;49.78;;;;;;;9.49;70.29;101133.28;5060572;28;20044;-70
2021/12/16 08:20:45;;;;;;;75.75;39.88;;;;;;;9.49;70.28;101130.63;5058816;28;20049;-69
2021/12/16 08:23:14;;;;;;;76.75;38.13;;;;;;;9.54;70.21;101133.88;5059719;28;20051;-68
2021/12/16 08:25:43;;;;;;;90.10;42.83;;;;;;;9.49;70.24;101142.06;5061575;28;20060;-69
2021/12/16 08:28:10;;;;;;;88.10;46.45;;;;;;;9.44;70.25;101136.19;5061345;28;20048;-67
2021/12/16 08:30:40;;;;;;;85.97;41.67;;;;;;;9.54;70.23;101141.78;5054954;28;20060;-72
2021/12/16 08:33:10;;;;;;;80.10;38.20;;;;;;;9.59;70.18;101138.94;5058655;28;20044;-68
2021/12/16 08:35:40;;;;;;;93.05;54.03;;;;;;;9.59;69.97;101150.31;5061187;28;20044;-69
2021/12/16 08:38:07;;;;;;;85.85;43.70;;;;;;;9.60;69.89;101149.41;5058017;28;20043;-72
2021/12/16 08:40:35;;;;;;;86.28;47.90;;;;;;;9.52;70.25;101141.88;5060104;28;20045;-71
2021/12/16 08:43:04;;;;;;;79.40;42.30;;;;;;;9.55;70.24;101152.28;5059098;28;20938;-69
2021/12/16 08:45:32;;;;;;;80.57;43.42;;;;;;;9.54;70.39;101152.34;5058776;28;20093;-70
2021/12/16 08:48:06;;;;;;;88.05;49.85;;;;;;;9.51;70.42;101158.66;5058551;28;20052;-69
2021/12/16 08:50:36;;;;;;;75.60;40.13;;;;;;;9.54;70.29;101157.63;5057280;28;20646;-69
2021/12/16 08:53:04;;;;;;;92.68;51.03;;;;;;;9.54;70.18;101149.72;5057597;28;20049;-68
2021/12/16 08:55:32;;;;;;;79.18;41.40;;;;;;;9.49;70.56;101152.59;5058181;28;20091;-70
2021/12/16 08:58:01;;;;;;;76.18;42.33;;;;;;;9.48;70.65;101148.25;5059191;28;20037;-71
2021/12/16 09:00:31;;;;;;;98.22;52.33;;;;;;;9.47;70.51;101143.06;5055187;28;20064;-71
2021/12/16 09:02:58;;;;;;;102.95;49.40;;;;;;;9.43;70.67;101146.81;5058725;28;20374;-70
2021/12/16 09:05:26;;;;;;;101.05;50.22;;;;;;;9.43;70.81;101152.06;5056926;28;20467;-69
2021/12/16 09:07:53;;;;;;;100.20;64.75;;;;;;;9.44;70.81;101143.25;5057114;28;20052;-71
2021/12/16 09:10:25;;;;;;;92.53;54.83;;;;;;;9.43;70.76;101149.44;5058846;28;20049;-70
2021/12/16 09:13:02;;;;;;;96.72;50.50;;;;;;;9.40;71.08;101152.22;5058143;28;20127;-70
2021/12/16 09:15:32;;;;;;;106.90;56.22;;;;;;;9.44;70.89;101145.88;5057623;28;20606;-72
2021/12/16 09:18:00;;;;;;;86.93;41.60;;;;;;;9.47;70.91;101146.56;5056907;28;20602;-70
2021/12/16 09:20:27;;;;;;;97.18;45.38;;;;;;;9.50;70.62;101140.25;5058518;28;20048;-70
2021/12/16 09:22:54;;;;;;;94.07;45.45;;;;;;;9.51;70.85;101142.81;5055739;28;20048;-68
2021/12/16 09:25:22;;;;;;;88.80;50.78;;;;;;;9.47;70.93;101136.03;5058849;28;20063;-70
2021/12/16 09:27:49;;;;;;;86.93;45.95;;;;;;;9.50;70.92;101138.47;5057692;28;20128;-69
2021/12/16 09:30:20;;;;;;;83.50;41.90;;;;;;;9.54;70.89;101134.75;5055213;28;20048;-69
2021/12/16 09:32:51;;;;;;;88.45;49.35;;;;;;;9.55;70.77;101132.97;5057532;28;20041;-69
2021/12/16 09:35:19;;;;;;;80.38;47.25;;;;;;;9.52;71.01;101127.84;5057052;28;20064;-71
2021/12/16 09:37:46;;;;;;;89.55;43.83;;;;;;;9.55;71.06;101138.25;5057641;28;20126;-70
2021/12/16 09:40:20;;;;;;;86.70;40.33;;;;;;;9.64;70.78;101124.53;5058587;28;20044;-69
2021/12/16 09:42:52;;;;;;;86.82;40.78;;;;;;;9.66;70.76;101127.94;5056959;28;20041;-70
2021/12/16 09:45:21;;;;;;;78.07;39.55;;;;;;;9.63;70.74;101127.25;5059875;28;20040;-68
2021/12/16 09:47:52;;;;;;;77.68;36.88;;;;;;;9.74;70.44;101123.13;5056561;28;20044;-71
2021/12/16 09:50:26;;;;;;;84.82;43.10;;;;;;;9.69;70.46;101125.16;5058745;28;20123;-71
2021/12/16 09:52:54;;;;;;;80.63;40.15;;;;;;;9.67;70.75;101116.47;5056900;28;20048;-68
2021/12/16 09:55:22;;;;;;;69.22;38.65;;;;;;;9.65;70.61;101118.34;5058991;28;20048;-71
2021/12/16 09:57:49;;;;;;;76.32;40.83;;;;;;;9.65;70.71;101117.47;5057479;28;20052;-69
2021/12/16 10:00:20;;;;;;;79.68;42.00;;;;;;;9.67;70.70;101119.13;5039669;28;20064;-70
2021/12/16 10:02:48;;;;;;;76.75;44.65;;;;;;;9.62;70.73;101115.03;5056302;28;20209;-71
2021/12/16 10:05:16;;;;;;;71.85;46.15;;;;;;;9.62;70.86;101107.13;5058446;28;20044;-69
2021/12/16 10:07:43;;;;;;;71.75;37.17;;;;;;;9.63;70.83;101114.06;5055969;28;20056;-69
2021/12/16 10:10:14;;;;;;;70.03;34.63;;;;;;;9.68;70.63;101128.72;5059099;28;20040;-73
2021/12/16 10:12:43;;;;;;;77.00;36.17;;;;;;;9.70;70.60;101132.09;5057663;28;20508;-69
2021/12/16 10:17:55;;;;;;;67.85;35.00;;;;;;;9.70;70.85;101124.19;5057640;28;20048;-69
2021/12/16 10:20:28;;;;;;;74.32;42.45;;;;;;;9.70;70.74;101123.34;5058216;28;20052;-71
2021/12/16 10:23:05;;;;;;;68.63;35.15;;;;;;;9.68;70.81;101118.16;5058250;28;20048;-69
2021/12/16 10:25:35;;;;;;;65.38;43.67;;;;;;;9.65;70.76;101128.91;5045529;28;20536;-69
2021/12/16 10:28:11;;;;;;;70.40;45.08;;;;;;;9.64;70.89;101126.34;5060644;28;20049;-76
2021/12/16 10:30:44;;;;;;;71.35;39.22;;;;;;;9.65;70.93;101121.00;5057541;28;20052;-72
2021/12/16 10:33:18;;;;;;;70.78;40.78;;;;;;;9.60;71.01;101130.94;5058338;28;20620;-71
2021/12/16 10:35:48;;;;;;;75.25;40.88;;;;;;;9.62;71.10;101139.59;5059467;28;20115;-71
2021/12/16 10:38:19;;;;;;;70.47;41.15;;;;;;;9.67;70.99;101128.78;5057908;28;20109;-71
2021/12/16 10:40:49;;;;;;;70.72;46.30;;;;;;;9.61;71.13;101122.06;5060830;28;20049;-69
2021/12/16 10:43:28;;;;;;;75.80;43.33;;;;;;;9.64;71.15;101119.28;5063062;28;20044;-69
2021/12/16 10:45:58;;;;;;;75.18;37.28;;;;;;;9.62;71.17;101110.59;5062436;28;20086;-71
2021/12/16 10:48:28;;;;;;;79.32;36.38;;;;;;;9.63;71.26;101114.91;5060676;28;20055;-70
2021/12/16 10:51:13;;;;;;;69.30;42.40;;;;;;;9.68;70.99;101123.44;5056682;28;20040;-72
2021/12/16 10:53:56;;;;;;;65.03;43.78;;;;;;;9.65;71.08;101117.47;5054826;28;20080;-70
2021/12/16 10:56:27;;;;;;;70.30;35.97;;;;;;;9.65;71.08;101113.06;5057698;28;20044;-68
2021/12/16 10:58:56;;;;;;;73.68;40.17;;;;;;;9.66;71.04;101119.19;5061913;28;20626;-70
2021/12/16 11:01:42;;;;;;;77.30;42.58;;;;;;;9.66;71.18;101113.91;5057498;28;20388;-74
2021/12/16 11:04:13;;;;;;;71.18;44.92;;;;;;;9.69;71.15;101119.88;5060642;28;20048;-71
2021/12/16 11:06:44;;;;;;;70.65;41.05;;;;;;;9.65;71.16;101114.84;5063233;28;20045;-69
2021/12/16 11:09:31;;;;;;;82.63;44.45;;;;;;;9.66;71.27;101127.94;5059961;28;20040;-68
2021/12/16 11:12:27;;;;;;;73.38;44.38;;;;;;;9.71;71.24;101112.72;5062819;28;20401;-70
2021/12/16 11:14:58;;;;;;;80.20;34.35;;;;;;;9.72;71.07;101103.00;5061340;28;20048;-69
2021/12/16 11:17:32;;;;;;;74.38;41.17;;;;;;;9.73;71.10;101112.66;5059854;28;20040;-68
2021/12/16 11:20:03;;;;;;;68.07;37.92;;;;;;;9.69;71.33;101109.31;5063215;28;20051;-69
2021/12/16 11:22:34;;;;;;;69.10;43.65;;;;;;;9.72;71.05;101108.28;5059452;28;20094;-70
2021/12/16 11:25:16;;;;;;;66.72;39.63;;;;;;;9.72;71.17;101117.06;5062144;28;20063;-69
2021/12/16 11:27:47;;;;;;;67.80;45.92;;;;;;;9.75;70.90;101110.78;5062410;28;20387;-69
2021/12/16 11:30:39;;;;;;;61.88;31.58;;;;;;;9.84;70.85;101109.41;5060643;28;20055;-70
2021/12/16 11:33:17;;;;;;;58.97;37.03;;;;;;;9.80;70.68;101102.63;4999055;28;20286;-69
2021/12/16 11:35:51;;;;;;;58.65;34.33;;;;;;;9.79;70.77;101104.38;4997516;28;20050;-70
2021/12/16 11:38:24;;;;;;;50.60;28.60;;;;;;;9.80;70.53;101097.34;4997903;28;20140;-69
2021/12/16 11:41:12;;;;;;;54.05;28.02;;;;;;;9.77;70.42;101107.09;4999293;28;20053;-71
2021/12/16 11:43:47;;;;;;;45.75;29.23;;;;;;;9.84;70.24;101093.59;4997652;28;20142;-70
2021/12/16 11:46:20;;;;;;;59.60;33.45;;;;;;;9.85;70.39;101103.19;4998220;28;20049;-67
2021/12/16 11:48:47;;;;;;;50.42;30.30;;;;;;;9.83;70.56;101103.28;4998414;28;20084;-71
2021/12/16 11:51:17;;;;;;;53.78;31.35;;;;;;;9.88;70.36;101098.59;4997562;28;20042;-72
2021/12/16 11:53:50;;;;;;;50.30;30.55;;;;;;;9.92;70.25;101093.97;4998825;28;20057;-71
2021/12/16 11:56:20;;;;;;;41.45;26.20;;;;;;;9.98;69.74;101092.81;5005040;28;20050;-86
2021/12/16 11:58:49;;;;;;;43.13;25.75;;;;;;;9.99;69.84;101092.69;5020768;28;20283;-84
2021/12/16 12:01:20;;;;;;;42.40;27.33;;;;;;;10.01;69.66;101098.78;5013924;28;20054;-79
2021/12/16 12:03:48;;;;;;;47.65;26.42;;;;;;;10.01;69.53;101088.22;5017620;28;20049;-85
2021/12/16 12:06:28;;;;;;;40.53;28.92;;;;;;;10.02;69.77;101089.06;5021131;28;20046;-84
2021/12/16 12:09:00;;;;;;;40.05;26.35;;;;;;;10.01;69.61;101093.50;5025830;28;20064;-81
2021/12/16 12:11:30;;;;;;;39.22;25.08;;;;;;;9.98;69.73;101098.09;5090466;28;20051;-80
2021/12/16 12:14:02;;;;;;;49.00;25.27;;;;;;;9.98;69.58;101098.94;5064450;28;20059;-84
2021/12/16 12:16:35;;;;;;;36.97;25.15;;;;;;;9.98;69.64;101103.38;5079303;28;20104;-84
2021/12/16 12:19:10;;;;;;;44.35;25.92;;;;;;;10.02;69.42;101102.25;5066751;28;20102;-81
2021/12/16 12:21:40;;;;;;;42.22;27.33;;;;;;;9.99;69.58;101100.63;5088585;28;20037;-84
2021/12/16 12:24:13;;;;;;;43.08;26.38;;;;;;;10.00;69.56;101104.13;5084932;28;20053;-81
2021/12/16 12:26:46;;;;;;;33.08;23.73;;;;;;;10.00;69.47;101097.06;5071722;28;20040;-88
2021/12/16 12:29:17;;;;;;;34.95;26.77;;;;;;;10.01;69.22;101108.44;5088300;28;20044;-77
2021/12/16 12:31:47;;;;;;;31.63;25.00;;;;;;;9.98;69.35;101101.56;5090844;28;20032;-77
2021/12/16 12:34:15;;;;;;;33.03;22.25;;;;;;;10.02;69.01;101103.09;5088627;28;20055;-79
2021/12/16 12:36:42;;;;;;;31.85;24.05;;;;;;;10.01;68.95;101109.31;5087098;28;20044;-74
2021/12/16 12:39:15;;;;;;;32.50;22.75;;;;;;;10.03;68.69;101111.84;5080578;28;20055;-78
2021/12/16 12:41:43;;;;;;;29.02;20.00;;;;;;;10.04;68.67;101103.00;5084932;28;20052;-77
2021/12/16 12:44:14;;;;;;;28.60;21.27;;;;;;;10.07;68.33;101092.28;5070307;28;20044;-91
2021/12/16 12:46:44;;;;;;;28.13;18.88;;;;;;;10.07;67.76;101090.50;5086855;28;20089;-75
2021/12/16 12:49:13;;;;;;;25.60;20.20;;;;;;;10.07;67.86;101093.13;5087836;28;20055;-79
2021/12/16 12:51:43;;;;;;;24.27;17.65;;;;;;;10.09;67.42;101104.44;5087663;28;20056;-76
2021/12/16 12:54:32;;;;;;;21.25;17.27;;;;;;;10.11;66.72;101089.38;5086639;28;20133;-82
2021/12/16 12:57:16;;;;;;;21.73;15.23;;;;;;;10.11;66.52;101094.66;5070465;28;20044;-85
2021/12/16 12:59:44;;;;;;;21.17;13.18;;;;;;;10.11;66.19;101081.44;5075116;28;20495;-84
2021/12/16 13:02:20;;;;;;;24.58;17.58;;;;;;;10.13;65.94;101086.66;5079473;28;20056;-81
2021/12/16 13:04:54;;;;;;;20.33;14.00;;;;;;;10.12;66.07;101088.44;5088220;28;20052;-79
2021/12/16 13:07:33;;;;;;;20.43;17.03;;;;;;;10.10;65.94;101086.81;5079976;28;20060;-78
2021/12/16 13:10:06;;;;;;;19.75;15.30;;;;;;;10.05;64.84;101091.53;5080957;28;20040;-81
2021/12/16 13:12:41;;;;;;;23.02;17.60;;;;;;;10.02;65.04;101103.09;5077353;28;20538;-72
2021/12/16 13:15:23;;;;;;;34.03;23.07;;;;;;;10.05;65.10;101116.13;5042458;28;20432;-81
2021/12/16 13:23:45;;;;;;;16.58;12.52;;;;;;;10.04;64.41;101114.41;5075302;28;20542;-83